sensor_id;sensor_type;location;lat;lon;timestamp;temperature;humidity
23467;DHT22;59740;47.696;11.746;2024-01-11T00:02:08;-1.90;90.50
23467;DHT22;59740;47.696;11.746;2024-01-11T00:04:37;-1.90;90.60
23467;DHT22;59740;47.696;11.746;2024-01-11T00:07:07;-1.90;90.50
23467;DHT22;59740;47.696;11.746;2024-01-11T00:09:38;-1.80;90.50
23467;DHT22;59740;47.696;11.746;2024-01-11T00:12:08;-1.90;90.60
23467;DHT22;59740;47.696;11.746;2024-01-11T00:14:36;-1.90;90.50
23467;DHT22;59740;47.696;11.746;2024-01-11T00:17:05;-1.90;90.40
23467;DHT22;59740;47.696;11.746;2024-01-11T00:19:33;-1.90;90.40
23467;DHT22;59740;47.696;11.746;2024-01-11T00:22:02;-1.80;90.80
23467;DHT22;59740;47.696;11.746;2024-01-11T00:24:30;-1.80;90.70
23467;DHT22;59740;47.696;11.746;2024-01-11T00:27:07;-1.90;90.50
23467;DHT22;59740;47.696;11.746;2024-01-11T00:29:36;-2.00;90.50
23467;DHT22;59740;47.696;11.746;2024-01-11T00:32:04;-1.90;90.30
23467;DHT22;59740;47.696;11.746;2024-01-11T00:34:33;-2.00;90.30
23467;DHT22;59740;47.696;11.746;2024-01-11T00:37:03;-2.00;90.30
23467;DHT22;59740;47.696;11.746;2024-01-11T00:39:32;-2.00;90.20
23467;DHT22;59740;47.696;11.746;2024-01-11T00:42:00;-2.10;90.20
23467;DHT22;59740;47.696;11.746;2024-01-11T00:44:30;-2.00;90.30
23467;DHT22;59740;47.696;11.746;2024-01-11T00:46:59;-2.10;90.10
23467;DHT22;59740;47.696;11.746;2024-01-11T00:49:27;-2.10;90.00
23467;DHT22;59740;47.696;11.746;2024-01-11T00:51:56;-2.10;90.10
23467;DHT22;59740;47.696;11.746;2024-01-11T00:54:24;-2.10;90.00
23467;DHT22;59740;47.696;11.746;2024-01-11T00:56:52;-2.10;90.00
23467;DHT22;59740;47.696;11.746;2024-01-11T00:59:21;-2.10;90.10
23467;DHT22;59740;47.696;11.746;2024-01-11T01:01:51;-2.00;90.50
23467;DHT22;59740;47.696;11.746;2024-01-11T01:04:19;-2.00;90.80
23467;DHT22;59740;47.696;11.746;2024-01-11T01:06:48;-1.90;90.90
23467;DHT22;59740;47.696;11.746;2024-01-11T01:09:16;-1.90;90.70
23467;DHT22;59740;47.696;11.746;2024-01-11T01:11:44;-1.90;90.60
23467;DHT22;59740;47.696;11.746;2024-01-11T01:14:13;-1.90;90.50
23467;DHT22;59740;47.696;11.746;2024-01-11T01:16:41;-2.00;90.60
23467;DHT22;59740;47.696;11.746;2024-01-11T01:19:11;-2.00;90.50
23467;DHT22;59740;47.696;11.746;2024-01-11T01:21:40;-2.10;90.20
23467;DHT22;59740;47.696;11.746;2024-01-11T01:24:08;-2.10;90.50
23467;DHT22;59740;47.696;11.746;2024-01-11T01:26:37;-2.10;90.50
23467;DHT22;59740;47.696;11.746;2024-01-11T01:29:05;-2.00;90.60
23467;DHT22;59740;47.696;11.746;2024-01-11T01:31:34;-2.00;90.50
23467;DHT22;59740;47.696;11.746;2024-01-11T01:34:05;-2.00;90.50
23467;DHT22;59740;47.696;11.746;2024-01-11T01:36:34;-2.00;90.90
23467;DHT22;59740;47.696;11.746;2024-01-11T01:39:03;-2.00;90.80
23467;DHT22;59740;47.696;11.746;2024-01-11T01:41:31;-1.90;90.60
23467;DHT22;59740;47.696;11.746;2024-01-11T01:44:00;-2.00;90.40
23467;DHT22;59740;47.696;11.746;2024-01-11T01:46:29;-2.00;90.50
23467;DHT22;59740;47.696;11.746;2024-01-11T01:48:58;-2.00;90.50
23467;DHT22;59740;47.696;11.746;2024-01-11T01:51:29;-2.00;90.60
23467;DHT22;59740;47.696;11.746;2024-01-11T01:54:01;-2.00;90.70
23467;DHT22;59740;47.696;11.746;2024-01-11T01:56:31;-2.00;90.70
23467;DHT22;59740;47.696;11.746;2024-01-11T01:59:01;-2.00;90.50
23467;DHT22;59740;47.696;11.746;2024-01-11T02:01:30;-2.10;90.30
23467;DHT22;59740;47.696;11.746;2024-01-11T02:03:59;-2.30;90.40
23467;DHT22;59740;47.696;11.746;2024-01-11T02:06:28;-2.20;90.60
23467;DHT22;59740;47.696;11.746;2024-01-11T02:09:01;-2.30;90.40
23467;DHT22;59740;47.696;11.746;2024-01-11T02:11:30;-2.20;90.40
23467;DHT22;59740;47.696;11.746;2024-01-11T02:13:59;-2.20;90.20
23467;DHT22;59740;47.696;11.746;2024-01-11T02:16:28;-2.20;90.30
23467;DHT22;59740;47.696;11.746;2024-01-11T02:18:56;-2.20;90.30
23467;DHT22;59740;47.696;11.746;2024-01-11T02:21:26;-2.20;90.20
23467;DHT22;59740;47.696;11.746;2024-01-11T02:24:03;-2.20;90.20
23467;DHT22;59740;47.696;11.746;2024-01-11T02:26:32;-2.20;90.10
23467;DHT22;59740;47.696;11.746;2024-01-11T02:29:01;-2.20;90.00
23467;DHT22;59740;47.696;11.746;2024-01-11T02:31:30;-2.20;90.00
23467;DHT22;59740;47.696;11.746;2024-01-11T02:33:59;-2.30;90.10
23467;DHT22;59740;47.696;11.746;2024-01-11T02:36:28;-2.20;90.40
23467;DHT22;59740;47.696;11.746;2024-01-11T02:38:56;-2.20;90.20
23467;DHT22;59740;47.696;11.746;2024-01-11T02:41:27;-2.30;90.30
23467;DHT22;59740;47.696;11.746;2024-01-11T02:43:56;-2.30;90.10
23467;DHT22;59740;47.696;11.746;2024-01-11T02:46:27;-2.30;90.00
23467;DHT22;59740;47.696;11.746;2024-01-11T02:48:55;-2.40;90.10
23467;DHT22;59740;47.696;11.746;2024-01-11T02:51:24;-2.40;90.20
23467;DHT22;59740;47.696;11.746;2024-01-11T02:53:52;-2.40;90.30
23467;DHT22;59740;47.696;11.746;2024-01-11T02:56:21;-2.30;90.20
23467;DHT22;59740;47.696;11.746;2024-01-11T02:58:52;-2.30;90.10
23467;DHT22;59740;47.696;11.746;2024-01-11T03:01:20;-2.30;90.10
23467;DHT22;59740;47.696;11.746;2024-01-11T03:03:49;-2.50;90.30
23467;DHT22;59740;47.696;11.746;2024-01-11T03:06:19;-2.40;90.80
23467;DHT22;59740;47.696;11.746;2024-01-11T03:08:50;-2.30;90.50
23467;DHT22;59740;47.696;11.746;2024-01-11T03:11:18;-2.40;90.40
23467;DHT22;59740;47.696;11.746;2024-01-11T03:13:47;-2.40;90.40
23467;DHT22;59740;47.696;11.746;2024-01-11T03:16:16;-2.40;90.60
23467;DHT22;59740;47.696;11.746;2024-01-11T03:18:45;-2.40;90.20
23467;DHT22;59740;47.696;11.746;2024-01-11T03:21:13;-2.40;90.10
23467;DHT22;59740;47.696;11.746;2024-01-11T03:23:42;-2.40;90.20
23467;DHT22;59740;47.696;11.746;2024-01-11T03:26:15;-2.50;90.00
23467;DHT22;59740;47.696;11.746;2024-01-11T03:28:44;-2.50;90.00
23467;DHT22;59740;47.696;11.746;2024-01-11T03:31:13;-2.50;90.00
23467;DHT22;59740;47.696;11.746;2024-01-11T03:33:42;-2.50;90.00
23467;DHT22;59740;47.696;11.746;2024-01-11T03:36:11;-2.50;90.00
23467;DHT22;59740;47.696;11.746;2024-01-11T03:38:40;-2.50;90.10
23467;DHT22;59740;47.696;11.746;2024-01-11T03:41:09;-2.50;90.20
23467;DHT22;59740;47.696;11.746;2024-01-11T03:43:38;-2.60;90.30
23467;DHT22;59740;47.696;11.746;2024-01-11T03:46:06;-2.50;90.30
23467;DHT22;59740;47.696;11.746;2024-01-11T03:48:35;-2.50;90.30
23467;DHT22;59740;47.696;11.746;2024-01-11T03:51:05;-2.40;90.60
23467;DHT22;59740;47.696;11.746;2024-01-11T03:53:35;-2.40;90.70
23467;DHT22;59740;47.696;11.746;2024-01-11T03:56:07;-2.30;91.00
23467;DHT22;59740;47.696;11.746;2024-01-11T03:58:36;-2.30;91.20
23467;DHT22;59740;47.696;11.746;2024-01-11T04:01:06;-2.30;91.20
23467;DHT22;59740;47.696;11.746;2024-01-11T04:03:37;-2.20;91.30
23467;DHT22;59740;47.696;11.746;2024-01-11T04:06:07;-2.20;91.30
23467;DHT22;59740;47.696;11.746;2024-01-11T04:08:36;-2.10;91.30
23467;DHT22;59740;47.696;11.746;2024-01-11T04:11:05;-2.10;91.20
23467;DHT22;59740;47.696;11.746;2024-01-11T04:13:33;-2.10;91.00
23467;DHT22;59740;47.696;11.746;2024-01-11T04:16:04;-2.20;90.90
23467;DHT22;59740;47.696;11.746;2024-01-11T04:18:33;-2.20;91.20
23467;DHT22;59740;47.696;11.746;2024-01-11T04:21:01;-2.20;91.20
23467;DHT22;59740;47.696;11.746;2024-01-11T04:23:31;-2.10;91.30
23467;DHT22;59740;47.696;11.746;2024-01-11T04:26:00;-2.20;91.50
23467;DHT22;59740;47.696;11.746;2024-01-11T04:28:28;-2.20;91.50
23467;DHT22;59740;47.696;11.746;2024-01-11T04:30:57;-2.30;91.60
23467;DHT22;59740;47.696;11.746;2024-01-11T04:33:25;-2.40;92.00
23467;DHT22;59740;47.696;11.746;2024-01-11T04:35:54;-2.40;92.20
23467;DHT22;59740;47.696;11.746;2024-01-11T04:38:22;-2.50;92.40
23467;DHT22;59740;47.696;11.746;2024-01-11T04:40:52;-2.50;92.60
23467;DHT22;59740;47.696;11.746;2024-01-11T04:43:20;-2.50;92.70
23467;DHT22;59740;47.696;11.746;2024-01-11T04:45:49;-2.50;92.90
23467;DHT22;59740;47.696;11.746;2024-01-11T04:48:17;-2.40;92.30
23467;DHT22;59740;47.696;11.746;2024-01-11T04:50:46;-2.40;92.30
23467;DHT22;59740;47.696;11.746;2024-01-11T04:53:15;-2.50;92.60
23467;DHT22;59740;47.696;11.746;2024-01-11T04:55:43;-2.50;93.10
23467;DHT22;59740;47.696;11.746;2024-01-11T04:58:13;-2.60;93.50
23467;DHT22;59740;47.696;11.746;2024-01-11T05:00:41;-2.60;93.40
23467;DHT22;59740;47.696;11.746;2024-01-11T05:03:10;-2.50;93.20
23467;DHT22;59740;47.696;11.746;2024-01-11T05:05:38;-2.40;93.00
23467;DHT22;59740;47.696;11.746;2024-01-11T05:08:07;-2.40;92.90
23467;DHT22;59740;47.696;11.746;2024-01-11T05:10:36;-2.40;92.80
23467;DHT22;59740;47.696;11.746;2024-01-11T05:13:04;-2.40;92.80
23467;DHT22;59740;47.696;11.746;2024-01-11T05:15:34;-2.40;92.80
23467;DHT22;59740;47.696;11.746;2024-01-11T05:18:03;-2.50;92.80
23467;DHT22;59740;47.696;11.746;2024-01-11T05:20:33;-2.60;93.10
23467;DHT22;59740;47.696;11.746;2024-01-11T05:23:01;-2.60;93.30
23467;DHT22;59740;47.696;11.746;2024-01-11T05:25:30;-2.70;93.30
23467;DHT22;59740;47.696;11.746;2024-01-11T05:28:00;-2.60;93.20
23467;DHT22;59740;47.696;11.746;2024-01-11T05:30:29;-2.60;93.00
23467;DHT22;59740;47.696;11.746;2024-01-11T05:32:59;-2.70;93.20
23467;DHT22;59740;47.696;11.746;2024-01-11T05:35:28;-2.70;92.90
23467;DHT22;59740;47.696;11.746;2024-01-11T05:37:57;-2.80;92.80
23467;DHT22;59740;47.696;11.746;2024-01-11T05:40:25;-2.80;92.80
23467;DHT22;59740;47.696;11.746;2024-01-11T05:42:54;-2.70;92.50
23467;DHT22;59740;47.696;11.746;2024-01-11T05:45:22;-2.80;91.90
23467;DHT22;59740;47.696;11.746;2024-01-11T05:48:09;-2.80;91.50
23467;DHT22;59740;47.696;11.746;2024-01-11T05:50:38;-2.80;91.80
23467;DHT22;59740;47.696;11.746;2024-01-11T05:53:07;-2.80;91.40
23467;DHT22;59740;47.696;11.746;2024-01-11T05:55:36;-2.90;90.90
23467;DHT22;59740;47.696;11.746;2024-01-11T05:58:04;-2.90;90.70
23467;DHT22;59740;47.696;11.746;2024-01-11T06:00:33;-3.00;90.70
23467;DHT22;59740;47.696;11.746;2024-01-11T06:03:02;-3.00;90.70
23467;DHT22;59740;47.696;11.746;2024-01-11T06:05:33;-3.00;90.80
23467;DHT22;59740;47.696;11.746;2024-01-11T06:08:02;-3.00;90.90
23467;DHT22;59740;47.696;11.746;2024-01-11T06:10:30;-3.00;90.90
23467;DHT22;59740;47.696;11.746;2024-01-11T06:12:59;-2.80;91.20
23467;DHT22;59740;47.696;11.746;2024-01-11T06:15:27;-2.80;91.40
23467;DHT22;59740;47.696;11.746;2024-01-11T06:17:56;-2.70;91.60
23467;DHT22;59740;47.696;11.746;2024-01-11T06:20:24;-2.60;91.80
23467;DHT22;59740;47.696;11.746;2024-01-11T06:22:54;-2.60;91.90
23467;DHT22;59740;47.696;11.746;2024-01-11T06:25:23;-2.60;91.90
23467;DHT22;59740;47.696;11.746;2024-01-11T06:27:51;-2.50;91.90
23467;DHT22;59740;47.696;11.746;2024-01-11T06:30:20;-2.50;91.90
23467;DHT22;59740;47.696;11.746;2024-01-11T06:32:48;-2.50;91.90
23467;DHT22;59740;47.696;11.746;2024-01-11T06:35:17;-2.50;92.00
23467;DHT22;59740;47.696;11.746;2024-01-11T06:37:46;-2.50;92.20
23467;DHT22;59740;47.696;11.746;2024-01-11T06:40:16;-2.40;92.20
23467;DHT22;59740;47.696;11.746;2024-01-11T06:42:47;-2.50;92.30
23467;DHT22;59740;47.696;11.746;2024-01-11T06:45:15;-2.50;92.30
23467;DHT22;59740;47.696;11.746;2024-01-11T06:47:44;-2.40;92.20
23467;DHT22;59740;47.696;11.746;2024-01-11T06:50:13;-2.40;92.10
23467;DHT22;59740;47.696;11.746;2024-01-11T06:52:42;-2.50;91.90
23467;DHT22;59740;47.696;11.746;2024-01-11T06:55:10;-2.50;91.80
23467;DHT22;59740;47.696;11.746;2024-01-11T06:57:40;-2.50;91.70
23467;DHT22;59740;47.696;11.746;2024-01-11T07:00:09;-2.50;91.50
23467;DHT22;59740;47.696;11.746;2024-01-11T07:02:38;-2.60;91.20
23467;DHT22;59740;47.696;11.746;2024-01-11T07:05:07;-2.80;91.30
23467;DHT22;59740;47.696;11.746;2024-01-11T07:07:36;-2.90;91.40
23467;DHT22;59740;47.696;11.746;2024-01-11T07:10:06;-2.90;91.70
23467;DHT22;59740;47.696;11.746;2024-01-11T07:12:36;-3.00;91.80
23467;DHT22;59740;47.696;11.746;2024-01-11T07:15:07;-2.90;91.90
23467;DHT22;59740;47.696;11.746;2024-01-11T07:17:36;-2.80;91.90
23467;DHT22;59740;47.696;11.746;2024-01-11T07:20:06;-2.80;92.10
23467;DHT22;59740;47.696;11.746;2024-01-11T07:22:35;-2.80;92.30
23467;DHT22;59740;47.696;11.746;2024-01-11T07:25:07;-2.80;92.00
23467;DHT22;59740;47.696;11.746;2024-01-11T07:27:36;-2.80;92.00
23467;DHT22;59740;47.696;11.746;2024-01-11T07:30:07;-2.90;92.20
23467;DHT22;59740;47.696;11.746;2024-01-11T07:32:36;-2.90;92.40
23467;DHT22;59740;47.696;11.746;2024-01-11T07:35:06;-3.00;92.70
23467;DHT22;59740;47.696;11.746;2024-01-11T07:37:40;-2.90;92.90
23467;DHT22;59740;47.696;11.746;2024-01-11T07:40:09;-2.80;92.60
23467;DHT22;59740;47.696;11.746;2024-01-11T07:42:38;-2.90;92.50
23467;DHT22;59740;47.696;11.746;2024-01-11T07:45:09;-2.90;92.40
23467;DHT22;59740;47.696;11.746;2024-01-11T07:47:38;-3.00;92.50
23467;DHT22;59740;47.696;11.746;2024-01-11T07:50:08;-3.00;92.50
23467;DHT22;59740;47.696;11.746;2024-01-11T07:52:38;-2.90;92.40
23467;DHT22;59740;47.696;11.746;2024-01-11T07:55:09;-2.90;92.10
23467;DHT22;59740;47.696;11.746;2024-01-11T07:57:40;-2.90;91.90
23467;DHT22;59740;47.696;11.746;2024-01-11T08:00:10;-2.90;92.00
23467;DHT22;59740;47.696;11.746;2024-01-11T08:02:39;-2.80;92.00
23467;DHT22;59740;47.696;11.746;2024-01-11T08:05:08;-2.80;91.90
23467;DHT22;59740;47.696;11.746;2024-01-11T08:07:37;-2.70;92.20
23467;DHT22;59740;47.696;11.746;2024-01-11T08:10:07;-2.70;92.50
23467;DHT22;59740;47.696;11.746;2024-01-11T08:12:36;-2.70;92.60
23467;DHT22;59740;47.696;11.746;2024-01-11T08:15:05;-2.60;92.60
23467;DHT22;59740;47.696;11.746;2024-01-11T08:17:35;-2.50;92.40
23467;DHT22;59740;47.696;11.746;2024-01-11T08:20:06;-2.40;92.30
23467;DHT22;59740;47.696;11.746;2024-01-11T08:22:36;-2.40;92.20
23467;DHT22;59740;47.696;11.746;2024-01-11T08:25:05;-2.40;92.20
23467;DHT22;59740;47.696;11.746;2024-01-11T08:27:34;-2.30;92.30
23467;DHT22;59740;47.696;11.746;2024-01-11T08:30:03;-2.30;92.10
23467;DHT22;59740;47.696;11.746;2024-01-11T08:32:32;-2.30;92.00
23467;DHT22;59740;47.696;11.746;2024-01-11T08:35:08;-2.30;91.90
23467;DHT22;59740;47.696;11.746;2024-01-11T08:37:39;-2.30;91.90
23467;DHT22;59740;47.696;11.746;2024-01-11T08:40:08;-2.40;91.80
23467;DHT22;59740;47.696;11.746;2024-01-11T08:42:38;-2.50;92.00
23467;DHT22;59740;47.696;11.746;2024-01-11T08:45:09;-2.60;92.20
23467;DHT22;59740;47.696;11.746;2024-01-11T08:47:37;-2.70;92.50
23467;DHT22;59740;47.696;11.746;2024-01-11T08:50:12;-2.70;92.70
23467;DHT22;59740;47.696;11.746;2024-01-11T08:52:41;-2.60;92.80
23467;DHT22;59740;47.696;11.746;2024-01-11T08:55:10;-2.60;92.80
23467;DHT22;59740;47.696;11.746;2024-01-11T08:57:39;-2.60;92.80
23467;DHT22;59740;47.696;11.746;2024-01-11T09:00:09;-2.60;92.80
23467;DHT22;59740;47.696;11.746;2024-01-11T09:02:38;-2.60;92.80
23467;DHT22;59740;47.696;11.746;2024-01-11T09:05:08;-2.50;92.80
23467;DHT22;59740;47.696;11.746;2024-01-11T09:07:37;-2.40;92.50
23467;DHT22;59740;47.696;11.746;2024-01-11T09:10:06;-2.40;92.40
23467;DHT22;59740;47.696;11.746;2024-01-11T09:12:36;-2.40;92.40
23467;DHT22;59740;47.696;11.746;2024-01-11T09:15:06;-2.40;92.50
23467;DHT22;59740;47.696;11.746;2024-01-11T09:17:34;-2.40;92.70
23467;DHT22;59740;47.696;11.746;2024-01-11T09:20:04;-2.30;92.60
23467;DHT22;59740;47.696;11.746;2024-01-11T09:22:34;-2.30;92.50
23467;DHT22;59740;47.696;11.746;2024-01-11T09:25:03;-2.20;92.60
23467;DHT22;59740;47.696;11.746;2024-01-11T09:27:34;-2.20;92.60
23467;DHT22;59740;47.696;11.746;2024-01-11T09:30:04;-2.10;92.40
23467;DHT22;59740;47.696;11.746;2024-01-11T09:32:32;-2.10;92.10
23467;DHT22;59740;47.696;11.746;2024-01-11T09:35:02;-2.10;92.10
23467;DHT22;59740;47.696;11.746;2024-01-11T09:37:33;-2.00;92.20
23467;DHT22;59740;47.696;11.746;2024-01-11T09:40:02;-2.00;92.10
23467;DHT22;59740;47.696;11.746;2024-01-11T09:42:33;-2.00;92.00
23467;DHT22;59740;47.696;11.746;2024-01-11T09:45:02;-1.90;91.80
23467;DHT22;59740;47.696;11.746;2024-01-11T09:47:33;-2.00;91.60
23467;DHT22;59740;47.696;11.746;2024-01-11T09:50:03;-1.80;91.50
23467;DHT22;59740;47.696;11.746;2024-01-11T09:52:33;-1.90;91.50
23467;DHT22;59740;47.696;11.746;2024-01-11T09:55:04;-1.80;91.10
23467;DHT22;59740;47.696;11.746;2024-01-11T09:57:35;-1.80;91.10
23467;DHT22;59740;47.696;11.746;2024-01-11T10:00:06;-1.80;91.00
23467;DHT22;59740;47.696;11.746;2024-01-11T10:02:36;-1.80;91.00
23467;DHT22;59740;47.696;11.746;2024-01-11T10:05:05;-1.80;90.90
23467;DHT22;59740;47.696;11.746;2024-01-11T10:07:38;-1.80;90.80
23467;DHT22;59740;47.696;11.746;2024-01-11T10:10:07;-1.80;90.70
23467;DHT22;59740;47.696;11.746;2024-01-11T10:12:36;-1.70;91.10
23467;DHT22;59740;47.696;11.746;2024-01-11T10:15:06;-1.70;91.00
23467;DHT22;59740;47.696;11.746;2024-01-11T10:17:37;-1.50;91.20
23467;DHT22;59740;47.696;11.746;2024-01-11T10:20:09;-1.50;91.20
23467;DHT22;59740;47.696;11.746;2024-01-11T10:22:42;-1.40;91.30
23467;DHT22;59740;47.696;11.746;2024-01-11T10:25:12;-1.30;91.60
23467;DHT22;59740;47.696;11.746;2024-01-11T10:27:42;-1.30;91.40
23467;DHT22;59740;47.696;11.746;2024-01-11T10:30:13;-1.30;91.20
23467;DHT22;59740;47.696;11.746;2024-01-11T10:32:44;-1.20;91.20
23467;DHT22;59740;47.696;11.746;2024-01-11T10:35:12;-1.20;91.30
23467;DHT22;59740;47.696;11.746;2024-01-11T10:37:44;-1.10;91.50
23467;DHT22;59740;47.696;11.746;2024-01-11T10:40:13;-1.00;91.40
23467;DHT22;59740;47.696;11.746;2024-01-11T10:42:45;-0.90;91.10
23467;DHT22;59740;47.696;11.746;2024-01-11T10:45:15;-0.90;90.90
23467;DHT22;59740;47.696;11.746;2024-01-11T10:47:50;-0.90;91.10
23467;DHT22;59740;47.696;11.746;2024-01-11T10:50:22;-0.70;91.00
23467;DHT22;59740;47.696;11.746;2024-01-11T10:53:03;-0.70;90.90
23467;DHT22;59740;47.696;11.746;2024-01-11T10:55:33;-0.60;91.00
23467;DHT22;59740;47.696;11.746;2024-01-11T10:58:02;-0.50;90.90
23467;DHT22;59740;47.696;11.746;2024-01-11T11:00:31;-0.50;90.90
23467;DHT22;59740;47.696;11.746;2024-01-11T11:03:03;-0.40;90.70
23467;DHT22;59740;47.696;11.746;2024-01-11T11:05:35;-0.50;90.80
23467;DHT22;59740;47.696;11.746;2024-01-11T11:08:06;-0.40;90.90
23467;DHT22;59740;47.696;11.746;2024-01-11T11:10:36;-0.30;90.90
23467;DHT22;59740;47.696;11.746;2024-01-11T11:13:05;-0.30;90.70
23467;DHT22;59740;47.696;11.746;2024-01-11T11:15:35;-0.20;90.50
23467;DHT22;59740;47.696;11.746;2024-01-11T11:18:05;-0.20;90.60
23467;DHT22;59740;47.696;11.746;2024-01-11T11:20:34;-0.10;90.60
23467;DHT22;59740;47.696;11.746;2024-01-11T11:23:05;-0.10;90.50
23467;DHT22;59740;47.696;11.746;2024-01-11T11:25:34;-0.10;90.50
23467;DHT22;59740;47.696;11.746;2024-01-11T11:28:03;0.00;90.40
23467;DHT22;59740;47.696;11.746;2024-01-11T11:30:33;0.00;90.30
23467;DHT22;59740;47.696;11.746;2024-01-11T11:33:09;0.00;90.50
23467;DHT22;59740;47.696;11.746;2024-01-11T11:35:38;0.20;90.60
23467;DHT22;59740;47.696;11.746;2024-01-11T11:38:17;0.30;90.50
23467;DHT22;59740;47.696;11.746;2024-01-11T11:40:46;0.50;90.30
23467;DHT22;59740;47.696;11.746;2024-01-11T11:43:16;0.60;90.60
23467;DHT22;59740;47.696;11.746;2024-01-11T11:45:47;0.70;91.10
23467;DHT22;59740;47.696;11.746;2024-01-11T11:48:50;0.80;91.00
23467;DHT22;59740;47.696;11.746;2024-01-11T11:51:23;0.90;90.90
23467;DHT22;59740;47.696;11.746;2024-01-11T11:53:57;0.90;91.00
23467;DHT22;59740;47.696;11.746;2024-01-11T11:56:27;0.90;90.90
23467;DHT22;59740;47.696;11.746;2024-01-11T11:58:55;0.80;90.90
23467;DHT22;59740;47.696;11.746;2024-01-11T12:01:24;0.80;90.70
23467;DHT22;59740;47.696;11.746;2024-01-11T12:03:52;0.80;90.60
23467;DHT22;59740;47.696;11.746;2024-01-11T12:06:21;0.70;90.50
23467;DHT22;59740;47.696;11.746;2024-01-11T12:08:53;0.70;90.50
23467;DHT22;59740;47.696;11.746;2024-01-11T12:11:26;0.60;90.50
23467;DHT22;59740;47.696;11.746;2024-01-11T12:13:54;0.60;90.50
23467;DHT22;59740;47.696;11.746;2024-01-11T12:16:24;0.50;90.20
23467;DHT22;59740;47.696;11.746;2024-01-11T12:18:52;0.60;90.20
23467;DHT22;59740;47.696;11.746;2024-01-11T12:21:22;0.70;90.00
23467;DHT22;59740;47.696;11.746;2024-01-11T12:23:50;0.80;89.30
23467;DHT22;59740;47.696;11.746;2024-01-11T12:26:19;0.80;88.90
23467;DHT22;59740;47.696;11.746;2024-01-11T12:28:52;0.90;88.90
23467;DHT22;59740;47.696;11.746;2024-01-11T12:31:21;1.20;88.20
23467;DHT22;59740;47.696;11.746;2024-01-11T12:33:50;1.30;87.40
23467;DHT22;59740;47.696;11.746;2024-01-11T12:36:21;1.40;86.70
23467;DHT22;59740;47.696;11.746;2024-01-11T12:38:49;1.50;86.00
23467;DHT22;59740;47.696;11.746;2024-01-11T12:41:21;1.70;85.80
23467;DHT22;59740;47.696;11.746;2024-01-11T12:43:53;1.90;85.30
23467;DHT22;59740;47.696;11.746;2024-01-11T12:46:22;2.10;84.80
23467;DHT22;59740;47.696;11.746;2024-01-11T12:48:51;2.20;83.70
23467;DHT22;59740;47.696;11.746;2024-01-11T12:51:20;2.40;83.00
23467;DHT22;59740;47.696;11.746;2024-01-11T12:53:51;2.50;81.70
23467;DHT22;59740;47.696;11.746;2024-01-11T12:56:20;2.50;81.50
23467;DHT22;59740;47.696;11.746;2024-01-11T12:58:51;2.20;81.50
23467;DHT22;59740;47.696;11.746;2024-01-11T13:01:21;1.90;81.50
23467;DHT22;59740;47.696;11.746;2024-01-11T13:03:49;1.40;82.70
23467;DHT22;59740;47.696;11.746;2024-01-11T13:06:19;1.10;83.50
23467;DHT22;59740;47.696;11.746;2024-01-11T13:08:48;1.00;84.90
23467;DHT22;59740;47.696;11.746;2024-01-11T13:11:17;0.90;85.30
23467;DHT22;59740;47.696;11.746;2024-01-11T13:13:48;0.90;85.80
23467;DHT22;59740;47.696;11.746;2024-01-11T13:16:17;0.90;85.40
23467;DHT22;59740;47.696;11.746;2024-01-11T13:18:48;0.90;85.40
23467;DHT22;59740;47.696;11.746;2024-01-11T13:21:17;0.70;85.40
23467;DHT22;59740;47.696;11.746;2024-01-11T13:23:45;0.80;86.20
23467;DHT22;59740;47.696;11.746;2024-01-11T13:26:14;0.70;86.30
23467;DHT22;59740;47.696;11.746;2024-01-11T13:28:42;0.60;85.70
23467;DHT22;59740;47.696;11.746;2024-01-11T13:31:11;0.50;86.30
23467;DHT22;59740;47.696;11.746;2024-01-11T13:33:39;0.50;86.40
23467;DHT22;59740;47.696;11.746;2024-01-11T13:36:09;0.30;86.10
23467;DHT22;59740;47.696;11.746;2024-01-11T13:38:38;0.10;86.40
23467;DHT22;59740;47.696;11.746;2024-01-11T13:41:06;-0.10;87.00
23467;DHT22;59740;47.696;11.746;2024-01-11T13:43:36;-0.20;87.60
23467;DHT22;59740;47.696;11.746;2024-01-11T13:46:05;-0.20;87.80
23467;DHT22;59740;47.696;11.746;2024-01-11T13:48:33;-0.20;87.60
23467;DHT22;59740;47.696;11.746;2024-01-11T13:51:02;-0.10;87.60
23467;DHT22;59740;47.696;11.746;2024-01-11T13:53:33;-0.10;87.30
23467;DHT22;59740;47.696;11.746;2024-01-11T13:56:01;-0.30;87.40
23467;DHT22;59740;47.696;11.746;2024-01-11T13:58:30;-0.40;87.80
23467;DHT22;59740;47.696;11.746;2024-01-11T14:00:59;-0.30;87.60
23467;DHT22;59740;47.696;11.746;2024-01-11T14:03:27;-0.30;87.20
23467;DHT22;59740;47.696;11.746;2024-01-11T14:05:56;-0.30;87.40
23467;DHT22;59740;47.696;11.746;2024-01-11T14:08:25;-0.30;87.50
23467;DHT22;59740;47.696;11.746;2024-01-11T14:10:55;-0.40;87.60
23467;DHT22;59740;47.696;11.746;2024-01-11T14:13:23;-0.40;87.50
23467;DHT22;59740;47.696;11.746;2024-01-11T14:15:52;-0.40;87.40
23467;DHT22;59740;47.696;11.746;2024-01-11T14:18:23;-0.30;87.60
23467;DHT22;59740;47.696;11.746;2024-01-11T14:20:52;-0.30;87.80
23467;DHT22;59740;47.696;11.746;2024-01-11T14:23:20;-0.40;88.00
23467;DHT22;59740;47.696;11.746;2024-01-11T14:25:49;-0.40;88.10
23467;DHT22;59740;47.696;11.746;2024-01-11T14:28:19;-0.40;88.10
23467;DHT22;59740;47.696;11.746;2024-01-11T14:30:49;-0.40;88.00
23467;DHT22;59740;47.696;11.746;2024-01-11T14:33:18;-0.50;87.70
23467;DHT22;59740;47.696;11.746;2024-01-11T14:35:47;-0.60;87.90
23467;DHT22;59740;47.696;11.746;2024-01-11T14:38:16;-0.60;88.50
23467;DHT22;59740;47.696;11.746;2024-01-11T14:40:44;-0.70;88.90
23467;DHT22;59740;47.696;11.746;2024-01-11T14:43:13;-0.60;88.80
23467;DHT22;59740;47.696;11.746;2024-01-11T14:45:43;-0.60;89.00
23467;DHT22;59740;47.696;11.746;2024-01-11T14:48:12;-0.60;89.40
23467;DHT22;59740;47.696;11.746;2024-01-11T14:50:40;-0.60;90.00
23467;DHT22;59740;47.696;11.746;2024-01-11T14:53:10;-0.60;90.40
23467;DHT22;59740;47.696;11.746;2024-01-11T14:55:38;-0.50;90.80
23467;DHT22;59740;47.696;11.746;2024-01-11T14:58:06;-0.50;91.10
23467;DHT22;59740;47.696;11.746;2024-01-11T15:00:36;-0.40;91.10
23467;DHT22;59740;47.696;11.746;2024-01-11T15:03:06;-0.50;91.00
23467;DHT22;59740;47.696;11.746;2024-01-11T15:05:35;-0.40;90.90
23467;DHT22;59740;47.696;11.746;2024-01-11T15:08:04;-0.50;90.90
23467;DHT22;59740;47.696;11.746;2024-01-11T15:10:33;-0.50;90.80
23467;DHT22;59740;47.696;11.746;2024-01-11T15:13:02;-0.50;90.70
23467;DHT22;59740;47.696;11.746;2024-01-11T15:15:30;-0.50;90.50
23467;DHT22;59740;47.696;11.746;2024-01-11T15:17:59;-0.50;90.20
23467;DHT22;59740;47.696;11.746;2024-01-11T15:20:29;-0.50;90.20
23467;DHT22;59740;47.696;11.746;2024-01-11T15:22:57;-0.60;90.50
23467;DHT22;59740;47.696;11.746;2024-01-11T15:25:26;-0.70;90.20
23467;DHT22;59740;47.696;11.746;2024-01-11T15:27:54;-0.60;90.20
23467;DHT22;59740;47.696;11.746;2024-01-11T15:30:23;-0.70;90.00
23467;DHT22;59740;47.696;11.746;2024-01-11T15:32:52;-0.70;90.20